sensor_id;sensor_type;location;lat;lon;timestamp;P1;durP1;ratioP1;P2;durP2;ratioP2
15256;SDS011;7731;50.720;6.912;2024-01-06T00:02:15;2.50;;;1.50;;
15256;SDS011;7731;50.720;6.912;2024-01-06T00:04:48;1.53;;;1.43;;
15256;SDS011;7731;50.720;6.912;2024-01-06T00:07:31;1.70;;;1.60;;
15256;SDS011;7731;50.720;6.912;2024-01-06T00:10:04;1.57;;;1.47;;
15256;SDS011;7731;50.720;6.912;2024-01-06T00:12:35;2.53;;;1.90;;
15256;SDS011;7731;50.720;6.912;2024-01-06T00:15:18;2.30;;;1.90;;
15256;SDS011;7731;50.720;6.912;2024-01-06T00:17:49;1.90;;;1.80;;
15256;SDS011;7731;50.720;6.912;2024-01-06T00:20:30;3.20;;;2.23;;
15256;SDS011;7731;50.720;6.912;2024-01-06T00:23:15;2.37;;;1.73;;
15256;SDS011;7731;50.720;6.912;2024-01-06T00:25:45;2.10;;;2.00;;
15256;SDS011;7731;50.720;6.912;2024-01-06T00:28:18;2.67;;;1.80;;
15256;SDS011;7731;50.720;6.912;2024-01-06T00:30:51;2.03;;;1.90;;
15256;SDS011;7731;50.720;6.912;2024-01-06T00:33:27;2.03;;;1.87;;
15256;SDS011;7731;50.720;6.912;2024-01-06T00:36:09;2.23;;;2.03;;
15256;SDS011;7731;50.720;6.912;2024-01-06T00:38:44;2.40;;;2.20;;
15256;SDS011;7731;50.720;6.912;2024-01-06T00:41:15;2.87;;;2.43;;
15256;SDS011;7731;50.720;6.912;2024-01-06T00:43:48;2.40;;;2.20;;
15256;SDS011;7731;50.720;6.912;2024-01-06T00:46:18;2.47;;;2.07;;
15256;SDS011;7731;50.720;6.912;2024-01-06T00:48:48;3.07;;;2.30;;
15256;SDS011;7731;50.720;6.912;2024-01-06T00:51:18;2.60;;;2.40;;
15256;SDS011;7731;50.720;6.912;2024-01-06T00:53:51;2.63;;;2.40;;
15256;SDS011;7731;50.720;6.912;2024-01-06T00:56:21;2.60;;;2.40;;
15256;SDS011;7731;50.720;6.912;2024-01-06T00:58:53;3.90;;;3.33;;
15256;SDS011;7731;50.720;6.912;2024-01-06T01:01:23;4.60;;;4.20;;
15256;SDS011;7731;50.720;6.912;2024-01-06T01:03:53;4.33;;;3.93;;
15256;SDS011;7731;50.720;6.912;2024-01-06T01:06:23;7.50;;;6.80;;
15256;SDS011;7731;50.720;6.912;2024-01-06T01:09:03;4.97;;;4.57;;
15256;SDS011;7731;50.720;6.912;2024-01-06T01:11:35;4.20;;;3.80;;
15256;SDS011;7731;50.720;6.912;2024-01-06T01:14:08;4.07;;;3.63;;
15256;SDS011;7731;50.720;6.912;2024-01-06T01:16:38;2.03;;;1.90;;
15256;SDS011;7731;50.720;6.912;2024-01-06T01:19:08;2.20;;;2.00;;
15256;SDS011;7731;50.720;6.912;2024-01-06T01:21:38;2.17;;;1.83;;
15256;SDS011;7731;50.720;6.912;2024-01-06T01:24:11;2.40;;;2.03;;
15256;SDS011;7731;50.720;6.912;2024-01-06T01:26:54;2.50;;;1.83;;
15256;SDS011;7731;50.720;6.912;2024-01-06T01:29:27;2.37;;;2.17;;
15256;SDS011;7731;50.720;6.912;2024-01-06T01:32:07;1.97;;;1.77;;
15256;SDS011;7731;50.720;6.912;2024-01-06T01:34:38;2.10;;;1.90;;
15256;SDS011;7731;50.720;6.912;2024-01-06T01:37:08;2.00;;;1.90;;
15256;SDS011;7731;50.720;6.912;2024-01-06T01:39:51;2.40;;;2.20;;
15256;SDS011;7731;50.720;6.912;2024-01-06T01:42:21;2.50;;;2.27;;
15256;SDS011;7731;50.720;6.912;2024-01-06T01:44:51;2.60;;;2.27;;
15256;SDS011;7731;50.720;6.912;2024-01-06T01:47:21;2.80;;;2.60;;
15256;SDS011;7731;50.720;6.912;2024-01-06T01:49:54;2.60;;;2.40;;
15256;SDS011;7731;50.720;6.912;2024-01-06T01:52:24;3.23;;;2.93;;
15256;SDS011;7731;50.720;6.912;2024-01-06T01:55:07;4.60;;;3.10;;
15256;SDS011;7731;50.720;6.912;2024-01-06T01:57:38;3.27;;;2.97;;
15256;SDS011;7731;50.720;6.912;2024-01-06T02:00:14;4.50;;;2.97;;
15256;SDS011;7731;50.720;6.912;2024-01-06T02:02:45;3.53;;;3.23;;
15256;SDS011;7731;50.720;6.912;2024-01-06T02:05:15;3.40;;;3.10;;
15256;SDS011;7731;50.720;6.912;2024-01-06T02:07:45;3.47;;;3.17;;
15256;SDS011;7731;50.720;6.912;2024-01-06T02:10:20;3.77;;;3.37;;
15256;SDS011;7731;50.720;6.912;2024-01-06T02:12:54;4.37;;;2.87;;
15256;SDS011;7731;50.720;6.912;2024-01-06T02:15:24;3.37;;;3.07;;
15256;SDS011;7731;50.720;6.912;2024-01-06T02:17:54;3.70;;;3.40;;
15256;SDS011;7731;50.720;6.912;2024-01-06T02:20:24;3.47;;;3.17;;
15256;SDS011;7731;50.720;6.912;2024-01-06T02:23:01;3.60;;;3.30;;
15256;SDS011;7731;50.720;6.912;2024-01-06T02:25:31;3.60;;;3.30;;
15256;SDS011;7731;50.720;6.912;2024-01-06T02:28:01;3.57;;;3.27;;
15256;SDS011;7731;50.720;6.912;2024-01-06T02:30:32;4.37;;;3.97;;
15256;SDS011;7731;50.720;6.912;2024-01-06T02:33:02;3.70;;;3.40;;
15256;SDS011;7731;50.720;6.912;2024-01-06T02:35:32;5.80;;;5.30;;
15256;SDS011;7731;50.720;6.912;2024-01-06T02:38:05;5.00;;;4.50;;
15256;SDS011;7731;50.720;6.912;2024-01-06T02:40:36;5.60;;;5.03;;
15256;SDS011;7731;50.720;6.912;2024-01-06T02:43:06;5.97;;;5.10;;
15256;SDS011;7731;50.720;6.912;2024-01-06T02:45:36;5.70;;;5.10;;
15256;SDS011;7731;50.720;6.912;2024-01-06T02:48:06;5.27;;;4.77;;
15256;SDS011;7731;50.720;6.912;2024-01-06T02:50:36;6.03;;;5.43;;
15256;SDS011;7731;50.720;6.912;2024-01-06T02:53:14;6.00;;;5.40;;
15256;SDS011;7731;50.720;6.912;2024-01-06T02:55:44;7.20;;;5.97;;
15256;SDS011;7731;50.720;6.912;2024-01-06T02:58:14;6.90;;;6.30;;
15256;SDS011;7731;50.720;6.912;2024-01-06T03:00:44;7.30;;;6.60;;
15256;SDS011;7731;50.720;6.912;2024-01-06T03:03:14;7.23;;;6.53;;
15256;SDS011;7731;50.720;6.912;2024-01-06T03:05:45;8.30;;;7.47;;
15256;SDS011;7731;50.720;6.912;2024-01-06T03:08:18;8.30;;;7.50;;
15256;SDS011;7731;50.720;6.912;2024-01-06T03:10:49;7.87;;;7.07;;
15256;SDS011;7731;50.720;6.912;2024-01-06T03:13:19;9.57;;;7.57;;
15256;SDS011;7731;50.720;6.912;2024-01-06T03:15:52;8.60;;;7.70;;
15256;SDS011;7731;50.720;6.912;2024-01-06T03:18:22;8.90;;;7.93;;
15256;SDS011;7731;50.720;6.912;2024-01-06T03:20:52;7.93;;;7.13;;
15256;SDS011;7731;50.720;6.912;2024-01-06T03:23:25;8.00;;;7.03;;
15256;SDS011;7731;50.720;6.912;2024-01-06T03:25:58;8.80;;;7.87;;
15256;SDS011;7731;50.720;6.912;2024-01-06T03:28:44;8.13;;;7.33;;
15256;SDS011;7731;50.720;6.912;2024-01-06T03:31:14;8.47;;;7.20;;
15256;SDS011;7731;50.720;6.912;2024-01-06T03:33:44;8.37;;;7.57;;
15256;SDS011;7731;50.720;6.912;2024-01-06T03:36:14;8.50;;;7.50;;
15256;SDS011;7731;50.720;6.912;2024-01-06T03:38:47;8.83;;;7.63;;
15256;SDS011;7731;50.720;6.912;2024-01-06T03:41:20;9.87;;;7.80;;
15256;SDS011;7731;50.720;6.912;2024-01-06T03:43:50;8.47;;;7.57;;
15256;SDS011;7731;50.720;6.912;2024-01-06T03:46:20;10.80;;;7.77;;
15256;SDS011;7731;50.720;6.912;2024-01-06T03:48:53;10.10;;;9.10;;
15256;SDS011;7731;50.720;6.912;2024-01-06T03:51:26;9.83;;;8.50;;
15256;SDS011;7731;50.720;6.912;2024-01-06T03:54:07;10.43;;;9.33;;
15256;SDS011;7731;50.720;6.912;2024-01-06T03:56:37;11.47;;;9.83;;
15256;SDS011;7731;50.720;6.912;2024-01-06T03:59:07;13.27;;;11.27;;
15256;SDS011;7731;50.720;6.912;2024-01-06T04:01:37;18.87;;;14.33;;
15256;SDS011;7731;50.720;6.912;2024-01-06T04:04:08;22.87;;;15.07;;
15256;SDS011;7731;50.720;6.912;2024-01-06T04:06:38;24.13;;;16.87;;
15256;SDS011;7731;50.720;6.912;2024-01-06T04:09:23;17.40;;;13.57;;
15256;SDS011;7731;50.720;6.912;2024-01-06T04:11:55;28.57;;;18.93;;
15256;SDS011;7731;50.720;6.912;2024-01-06T04:14:30;30.60;;;18.97;;
15256;SDS011;7731;50.720;6.912;2024-01-06T04:17:00;26.57;;;16.83;;
15256;SDS011;7731;50.720;6.912;2024-01-06T04:19:30;27.17;;;16.30;;
15256;SDS011;7731;50.720;6.912;2024-01-06T04:22:01;23.37;;;14.40;;
15256;SDS011;7731;50.720;6.912;2024-01-06T04:24:36;29.37;;;16.03;;
15256;SDS011;7731;50.720;6.912;2024-01-06T04:27:15;26.40;;;15.13;;
15256;SDS011;7731;50.720;6.912;2024-01-06T04:29:45;23.97;;;14.50;;
15256;SDS011;7731;50.720;6.912;2024-01-06T04:32:25;18.77;;;13.40;;
15256;SDS011;7731;50.720;6.912;2024-01-06T04:34:58;12.33;;;9.77;;
15256;SDS011;7731;50.720;6.912;2024-01-06T04:37:29;9.33;;;8.30;;
15256;SDS011;7731;50.720;6.912;2024-01-06T04:40:02;10.33;;;7.83;;
15256;SDS011;7731;50.720;6.912;2024-01-06T04:42:34;8.33;;;7.00;;
15256;SDS011;7731;50.720;6.912;2024-01-06T04:45:08;8.07;;;7.27;;
15256;SDS011;7731;50.720;6.912;2024-01-06T04:47:41;8.83;;;7.63;;
15256;SDS011;7731;50.720;6.912;2024-01-06T04:50:20;9.47;;;7.93;;
15256;SDS011;7731;50.720;6.912;2024-01-06T04:52:50;19.20;;;12.30;;
15256;SDS011;7731;50.720;6.912;2024-01-06T04:55:22;27.07;;;14.73;;
15256;SDS011;7731;50.720;6.912;2024-01-06T04:57:52;22.27;;;14.70;;
15256;SDS011;7731;50.720;6.912;2024-01-06T05:00:23;17.37;;;12.17;;
15256;SDS011;7731;50.720;6.912;2024-01-06T05:02:53;34.97;;;19.53;;
15256;SDS011;7731;50.720;6.912;2024-01-06T05:05:23;25.07;;;16.07;;
15256;SDS011;7731;50.720;6.912;2024-01-06T05:07:53;26.20;;;16.87;;
15256;SDS011;7731;50.720;6.912;2024-01-06T05:10:27;25.43;;;15.90;;
15256;SDS011;7731;50.720;6.912;2024-01-06T05:12:57;23.40;;;15.50;;
15256;SDS011;7731;50.720;6.912;2024-01-06T05:15:27;15.57;;;12.50;;
15256;SDS011;7731;50.720;6.912;2024-01-06T05:17:57;17.27;;;13.57;;
15256;SDS011;7731;50.720;6.912;2024-01-06T05:20:27;18.10;;;14.37;;
15256;SDS011;7731;50.720;6.912;2024-01-06T05:22:57;15.47;;;12.73;;
15256;SDS011;7731;50.720;6.912;2024-01-06T05:25:32;17.17;;;14.30;;
15256;SDS011;7731;50.720;6.912;2024-01-06T05:28:02;15.93;;;14.07;;
15256;SDS011;7731;50.720;6.912;2024-01-06T05:30:35;17.90;;;14.93;;
15256;SDS011;7731;50.720;6.912;2024-01-06T05:33:05;19.07;;;14.07;;
15256;SDS011;7731;50.720;6.912;2024-01-06T05:35:42;19.30;;;14.73;;
15256;SDS011;7731;50.720;6.912;2024-01-06T05:38:14;18.23;;;14.17;;
15256;SDS011;7731;50.720;6.912;2024-01-06T05:40:50;16.80;;;12.67;;
15256;SDS011;7731;50.720;6.912;2024-01-06T05:43:20;18.23;;;13.07;;
15256;SDS011;7731;50.720;6.912;2024-01-06T05:45:50;16.67;;;13.33;;
15256;SDS011;7731;50.720;6.912;2024-01-06T05:48:20;16.93;;;13.47;;
15256;SDS011;7731;50.720;6.912;2024-01-06T05:50:53;16.40;;;13.97;;
15256;SDS011;7731;50.720;6.912;2024-01-06T05:53:31;17.57;;;14.63;;
15256;SDS011;7731;50.720;6.912;2024-01-06T05:56:03;22.43;;;18.27;;
15256;SDS011;7731;50.720;6.912;2024-01-06T05:58:36;22.87;;;18.57;;
15256;SDS011;7731;50.720;6.912;2024-01-06T06:01:06;23.97;;;18.57;;
15256;SDS011;7731;50.720;6.912;2024-01-06T06:03:39;26.30;;;19.77;;
15256;SDS011;7731;50.720;6.912;2024-01-06T06:06:09;24.80;;;18.33;;
15256;SDS011;7731;50.720;6.912;2024-01-06T06:08:40;22.43;;;17.67;;
15256;SDS011;7731;50.720;6.912;2024-01-06T06:11:20;24.20;;;18.17;;
15256;SDS011;7731;50.720;6.912;2024-01-06T06:13:50;24.10;;;17.97;;
15256;SDS011;7731;50.720;6.912;2024-01-06T06:16:23;23.27;;;18.50;;
15256;SDS011;7731;50.720;6.912;2024-01-06T06:18:56;23.73;;;18.53;;
15256;SDS011;7731;50.720;6.912;2024-01-06T06:21:26;23.97;;;18.40;;
15256;SDS011;7731;50.720;6.912;2024-01-06T06:24:02;26.03;;;19.17;;
15256;SDS011;7731;50.720;6.912;2024-01-06T06:26:37;25.70;;;18.73;;
15256;SDS011;7731;50.720;6.912;2024-01-06T06:29:08;26.53;;;19.60;;
15256;SDS011;7731;50.720;6.912;2024-01-06T06:31:38;27.37;;;20.77;;
15256;SDS011;7731;50.720;6.912;2024-01-06T06:34:09;25.70;;;19.90;;
15256;SDS011;7731;50.720;6.912;2024-01-06T06:36:42;26.17;;;20.50;;
15256;SDS011;7731;50.720;6.912;2024-01-06T06:39:15;26.43;;;20.27;;
15256;SDS011;7731;50.720;6.912;2024-01-06T06:41:51;27.03;;;20.03;;
15256;SDS011;7731;50.720;6.912;2024-01-06T06:44:21;24.30;;;20.03;;
15256;SDS011;7731;50.720;6.912;2024-01-06T06:46:55;25.10;;;19.50;;
15256;SDS011;7731;50.720;6.912;2024-01-06T06:49:27;26.07;;;20.00;;
15256;SDS011;7731;50.720;6.912;2024-01-06T06:51:57;22.73;;;18.23;;
15256;SDS011;7731;50.720;6.912;2024-01-06T06:54:29;23.33;;;18.20;;
15256;SDS011;7731;50.720;6.912;2024-01-06T06:57:04;26.03;;;19.33;;
15256;SDS011;7731;50.720;6.912;2024-01-06T06:59:34;23.83;;;18.73;;
15256;SDS011;7731;50.720;6.912;2024-01-06T07:02:05;25.77;;;18.23;;
15256;SDS011;7731;50.720;6.912;2024-01-06T07:04:36;25.00;;;18.50;;
15256;SDS011;7731;50.720;6.912;2024-01-06T07:07:11;22.77;;;17.73;;
15256;SDS011;7731;50.720;6.912;2024-01-06T07:09:42;21.33;;;17.67;;
15256;SDS011;7731;50.720;6.912;2024-01-06T07:12:14;25.00;;;18.03;;
15256;SDS011;7731;50.720;6.912;2024-01-06T07:14:44;25.70;;;17.93;;
15256;SDS011;7731;50.720;6.912;2024-01-06T07:17:14;24.37;;;17.30;;
15256;SDS011;7731;50.720;6.912;2024-01-06T07:19:49;25.57;;;17.37;;
15256;SDS011;7731;50.720;6.912;2024-01-06T07:22:22;25.63;;;16.03;;
15256;SDS011;7731;50.720;6.912;2024-01-06T07:24:52;23.63;;;15.50;;
15256;SDS011;7731;50.720;6.912;2024-01-06T07:27:25;23.47;;;16.17;;
15256;SDS011;7731;50.720;6.912;2024-01-06T07:29:55;26.47;;;16.77;;
15256;SDS011;7731;50.720;6.912;2024-01-06T07:32:28;23.57;;;15.37;;
15256;SDS011;7731;50.720;6.912;2024-01-06T07:34:58;102.60;;;65.33;;
15256;SDS011;7731;50.720;6.912;2024-01-06T07:37:33;26.90;;;20.03;;
15256;SDS011;7731;50.720;6.912;2024-01-06T07:40:06;40.73;;;32.77;;
15256;SDS011;7731;50.720;6.912;2024-01-06T07:42:41;28.50;;;25.40;;
15256;SDS011;7731;50.720;6.912;2024-01-06T07:45:12;26.53;;;20.13;;
15256;SDS011;7731;50.720;6.912;2024-01-06T07:47:44;25.77;;;16.77;;
15256;SDS011;7731;50.720;6.912;2024-01-06T07:50:14;25.43;;;18.43;;
15256;SDS011;7731;50.720;6.912;2024-01-06T07:52:44;29.20;;;21.50;;
15256;SDS011;7731;50.720;6.912;2024-01-06T07:55:17;27.47;;;18.47;;
15256;SDS011;7731;50.720;6.912;2024-01-06T07:57:50;26.87;;;17.43;;
15256;SDS011;7731;50.720;6.912;2024-01-06T08:00:22;23.93;;;16.93;;
15256;SDS011;7731;50.720;6.912;2024-01-06T08:02:52;25.90;;;17.67;;
15256;SDS011;7731;50.720;6.912;2024-01-06T08:05:23;28.43;;;20.37;;
15256;SDS011;7731;50.720;6.912;2024-01-06T08:07:55;23.87;;;16.23;;
15256;SDS011;7731;50.720;6.912;2024-01-06T08:10:25;28.90;;;19.73;;
15256;SDS011;7731;50.720;6.912;2024-01-06T08:13:03;22.97;;;15.57;;
15256;SDS011;7731;50.720;6.912;2024-01-06T08:15:33;25.77;;;16.50;;
15256;SDS011;7731;50.720;6.912;2024-01-06T08:18:03;22.23;;;15.77;;
15256;SDS011;7731;50.720;6.912;2024-01-06T08:20:37;27.97;;;19.77;;
15256;SDS011;7731;50.720;6.912;2024-01-06T08:23:07;36.83;;;27.83;;
15256;SDS011;7731;50.720;6.912;2024-01-06T08:25:37;23.43;;;16.83;;
15256;SDS011;7731;50.720;6.912;2024-01-06T08:28:10;22.57;;;17.07;;
15256;SDS011;7731;50.720;6.912;2024-01-06T08:33:35;22.13;;;16.40;;
15256;SDS011;7731;50.720;6.912;2024-01-06T08:36:05;23.27;;;17.00;;
15256;SDS011;7731;50.720;6.912;2024-01-06T08:38:36;22.90;;;16.33;;
15256;SDS011;7731;50.720;6.912;2024-01-06T08:41:09;22.57;;;16.13;;
15256;SDS011;7731;50.720;6.912;2024-01-06T08:43:41;26.00;;;20.47;;
15256;SDS011;7731;50.720;6.912;2024-01-06T08:46:18;23.60;;;16.63;;
15256;SDS011;7731;50.720;6.912;2024-01-06T08:48:48;21.60;;;15.23;;
15256;SDS011;7731;50.720;6.912;2024-01-06T08:51:18;23.13;;;16.80;;
15256;SDS011;7731;50.720;6.912;2024-01-06T08:53:48;21.23;;;16.17;;
15256;SDS011;7731;50.720;6.912;2024-01-06T08:56:21;22.13;;;15.80;;
15256;SDS011;7731;50.720;6.912;2024-01-06T08:58:54;22.27;;;16.33;;
15256;SDS011;7731;50.720;6.912;2024-01-06T09:01:24;21.67;;;15.70;;
15256;SDS011;7731;50.720;6.912;2024-01-06T09:03:54;23.40;;;16.07;;
15256;SDS011;7731;50.720;6.912;2024-01-06T09:06:24;22.50;;;15.80;;
15256;SDS011;7731;50.720;6.912;2024-01-06T09:08:54;24.90;;;15.90;;
15256;SDS011;7731;50.720;6.912;2024-01-06T09:11:24;23.37;;;16.43;;
15256;SDS011;7731;50.720;6.912;2024-01-06T09:13:57;20.40;;;14.77;;
15256;SDS011;7731;50.720;6.912;2024-01-06T09:16:27;22.13;;;15.07;;
15256;SDS011;7731;50.720;6.912;2024-01-06T09:18:57;20.50;;;15.20;;
15256;SDS011;7731;50.720;6.912;2024-01-06T09:21:30;19.27;;;15.07;;
15256;SDS011;7731;50.720;6.912;2024-01-06T09:24:00;20.13;;;15.00;;
15256;SDS011;7731;50.720;6.912;2024-01-06T09:26:36;20.90;;;16.20;;
15256;SDS011;7731;50.720;6.912;2024-01-06T09:29:09;21.63;;;14.60;;
15256;SDS011;7731;50.720;6.912;2024-01-06T09:31:41;16.83;;;13.70;;
15256;SDS011;7731;50.720;6.912;2024-01-06T09:34:15;14.47;;;11.57;;
15256;SDS011;7731;50.720;6.912;2024-01-06T09:39:10;19.37;;;14.83;;
15256;SDS011;7731;50.720;6.912;2024-01-06T09:41:40;20.60;;;13.13;;
15256;SDS011;7731;50.720;6.912;2024-01-06T09:44:13;16.23;;;12.23;;
15256;SDS011;7731;50.720;6.912;2024-01-06T09:46:44;17.43;;;13.47;;
15256;SDS011;7731;50.720;6.912;2024-01-06T09:49:16;17.10;;;12.63;;
15256;SDS011;7731;50.720;6.912;2024-01-06T09:51:52;19.57;;;13.60;;
15256;SDS011;7731;50.720;6.912;2024-01-06T09:54:30;16.73;;;11.87;;
15256;SDS011;7731;50.720;6.912;2024-01-06T09:57:06;15.17;;;11.50;;
15256;SDS011;7731;50.720;6.912;2024-01-06T09:59:38;18.33;;;12.77;;
15256;SDS011;7731;50.720;6.912;2024-01-06T10:02:11;18.20;;;12.33;;
15256;SDS011;7731;50.720;6.912;2024-01-06T10:04:44;16.70;;;12.17;;
15256;SDS011;7731;50.720;6.912;2024-01-06T10:07:15;16.83;;;12.60;;
15256;SDS011;7731;50.720;6.912;2024-01-06T10:09:48;18.53;;;12.43;;
15256;SDS011;7731;50.720;6.912;2024-01-06T10:12:22;16.40;;;11.97;;
15256;SDS011;7731;50.720;6.912;2024-01-06T10:14:58;16.00;;;11.90;;
15256;SDS011;7731;50.720;6.912;2024-01-06T10:17:32;16.90;;;13.17;;
15256;SDS011;7731;50.720;6.912;2024-01-06T10:20:09;16.77;;;11.83;;
15256;SDS011;7731;50.720;6.912;2024-01-06T10:22:41;17.30;;;12.70;;
15256;SDS011;7731;50.720;6.912;2024-01-06T10:25:25;16.93;;;12.57;;
15256;SDS011;7731;50.720;6.912;2024-01-06T10:27:55;14.53;;;11.73;;
15256;SDS011;7731;50.720;6.912;2024-01-06T10:30:40;17.97;;;12.53;;
15256;SDS011;7731;50.720;6.912;2024-01-06T10:33:14;16.83;;;12.33;;
15256;SDS011;7731;50.720;6.912;2024-01-06T10:35:44;15.90;;;13.10;;
15256;SDS011;7731;50.720;6.912;2024-01-06T10:38:17;14.90;;;11.60;;
15256;SDS011;7731;50.720;6.912;2024-01-06T10:40:58;16.00;;;12.70;;
15256;SDS011;7731;50.720;6.912;2024-01-06T10:43:34;42.70;;;30.53;;
15256;SDS011;7731;50.720;6.912;2024-01-06T10:46:07;30.63;;;21.20;;
15256;SDS011;7731;50.720;6.912;2024-01-06T10:48:40;17.17;;;12.90;;
15256;SDS011;7731;50.720;6.912;2024-01-06T10:51:13;14.97;;;10.77;;
15256;SDS011;7731;50.720;6.912;2024-01-06T10:53:47;16.33;;;11.63;;
15256;SDS011;7731;50.720;6.912;2024-01-06T10:56:22;13.20;;;10.37;;
15256;SDS011;7731;50.720;6.912;2024-01-06T10:58:59;13.93;;;11.00;;
15256;SDS011;7731;50.720;6.912;2024-01-06T11:01:36;14.00;;;11.97;;
15256;SDS011;7731;50.720;6.912;2024-01-06T11:04:08;13.17;;;10.97;;
15256;SDS011;7731;50.720;6.912;2024-01-06T11:06:40;14.70;;;12.20;;
15256;SDS011;7731;50.720;6.912;2024-01-06T11:09:19;17.73;;;14.43;;
15256;SDS011;7731;50.720;6.912;2024-01-06T11:12:14;35.60;;;24.10;;
15256;SDS011;7731;50.720;6.912;2024-01-06T11:14:44;75.60;;;45.20;;
15256;SDS011;7731;50.720;6.912;2024-01-06T11:20:25;32.27;;;28.73;;
15256;SDS011;7731;50.720;6.912;2024-01-06T11:23:17;25.60;;;19.07;;
15256;SDS011;7731;50.720;6.912;2024-01-06T11:25:49;26.10;;;21.47;;
15256;SDS011;7731;50.720;6.912;2024-01-06T11:28:25;17.57;;;14.93;;
15256;SDS011;7731;50.720;6.912;2024-01-06T11:31:04;15.60;;;11.83;;
15256;SDS011;7731;50.720;6.912;2024-01-06T11:33:46;23.13;;;19.67;;
15256;SDS011;7731;50.720;6.912;2024-01-06T11:36:24;26.93;;;23.13;;
15256;SDS011;7731;50.720;6.912;2024-01-06T11:38:55;24.57;;;20.00;;
15256;SDS011;7731;50.720;6.912;2024-01-06T11:44:21;27.43;;;23.80;;
15256;SDS011;7731;50.720;6.912;2024-01-06T11:46:51;24.83;;;18.50;;
15256;SDS011;7731;50.720;6.912;2024-01-06T11:49:32;45.20;;;32.83;;
15256;SDS011;7731;50.720;6.912;2024-01-06T11:52:06;31.73;;;26.10;;
15256;SDS011;7731;50.720;6.912;2024-01-06T11:54:36;17.97;;;13.70;;
15256;SDS011;7731;50.720;6.912;2024-01-06T11:57:08;19.77;;;15.63;;
15256;SDS011;7731;50.720;6.912;2024-01-06T11:59:47;19.07;;;15.23;;
15256;SDS011;7731;50.720;6.912;2024-01-06T12:02:18;21.13;;;16.13;;
15256;SDS011;7731;50.720;6.912;2024-01-06T12:04:49;30.47;;;22.77;;
15256;SDS011;7731;50.720;6.912;2024-01-06T12:07:20;17.13;;;14.23;;
15256;SDS011;7731;50.720;6.912;2024-01-06T12:10:00;16.63;;;12.93;;
15256;SDS011;7731;50.720;6.912;2024-01-06T12:12:54;17.33;;;14.57;;
15256;SDS011;7731;50.720;6.912;2024-01-06T12:15:30;17.80;;;14.23;;
15256;SDS011;7731;50.720;6.912;2024-01-06T12:18:07;16.87;;;13.50;;
15256;SDS011;7731;50.720;6.912;2024-01-06T12:20:37;20.83;;;15.40;;
15256;SDS011;7731;50.720;6.912;2024-01-06T12:23:08;17.93;;;14.40;;
15256;SDS011;7731;50.720;6.912;2024-01-06T12:25:39;18.57;;;15.53;;
15256;SDS011;7731;50.720;6.912;2024-01-06T12:28:11;18.27;;;14.40;;
15256;SDS011;7731;50.720;6.912;2024-01-06T12:30:50;20.10;;;16.43;;
15256;SDS011;7731;50.720;6.912;2024-01-06T12:33:23;17.23;;;14.07;;
15256;SDS011;7731;50.720;6.912;2024-01-06T12:35:54;18.40;;;14.03;;
15256;SDS011;7731;50.720;6.912;2024-01-06T12:38:46;19.33;;;14.17;;
15256;SDS011;7731;50.720;6.912;2024-01-06T12:41:16;19.33;;;14.90;;
15256;SDS011;7731;50.720;6.912;2024-01-06T12:43:46;18.23;;;13.80;;
15256;SDS011;7731;50.720;6.912;2024-01-06T12:46:19;18.50;;;14.17;;
15256;SDS011;7731;50.720;6.912;2024-01-06T12:48:50;16.37;;;12.97;;
15256;SDS011;7731;50.720;6.912;2024-01-06T12:51:21;16.30;;;12.90;;
15256;SDS011;7731;50.720;6.912;2024-01-06T12:53:54;19.13;;;14.23;;
15256;SDS011;7731;50.720;6.912;2024-01-06T12:56:24;17.27;;;13.43;;
15256;SDS011;7731;50.720;6.912;2024-01-06T12:58:57;16.93;;;13.80;;
15256;SDS011;7731;50.720;6.912;2024-01-06T13:01:35;17.07;;;13.87;;
15256;SDS011;7731;50.720;6.912;2024-01-06T13:04:06;18.30;;;13.80;;
15256;SDS011;7731;50.720;6.912;2024-01-06T13:06:36;19.13;;;14.70;;
15256;SDS011;7731;50.720;6.912;2024-01-06T13:09:12;15.87;;;12.50;;
15256;SDS011;7731;50.720;6.912;2024-01-06T13:11:45;15.03;;;12.07;;
15256;SDS011;7731;50.720;6.912;2024-01-06T13:14:16;14.33;;;11.77;;
15256;SDS011;7731;50.720;6.912;2024-01-06T13:16:52;15.87;;;12.20;;
15256;SDS011;7731;50.720;6.912;2024-01-06T13:19:22;14.50;;;11.53;;
15256;SDS011;7731;50.720;6.912;2024-01-06T13:21:54;16.67;;;11.90;;
15256;SDS011;7731;50.720;6.912;2024-01-06T13:24:31;16.37;;;12.40;;
15256;SDS011;7731;50.720;6.912;2024-01-06T13:27:01;14.90;;;11.93;;
15256;SDS011;7731;50.720;6.912;2024-01-06T13:29:35;16.47;;;11.73;;
15256;SDS011;7731;50.720;6.912;2024-01-06T13:32:14;17.60;;;12.50;;
15256;SDS011;7731;50.720;6.912;2024-01-06T13:34:48;17.97;;;12.60;;
15256;SDS011;7731;50.720;6.912;2024-01-06T13:37:22;17.67;;;12.53;;
15256;SDS011;7731;50.720;6.912;2024-01-06T13:40:00;18.53;;;13.93;;
15256;SDS011;7731;50.720;6.912;2024-01-06T13:42:30;16.67;;;12.57;;
15256;SDS011;7731;50.720;6.912;2024-01-06T13:45:01;18.90;;;12.33;;
15256;SDS011;7731;50.720;6.912;2024-01-06T13:47:42;17.93;;;11.83;;
15256;SDS011;7731;50.720;6.912;2024-01-06T13:50:16;18.33;;;12.77;;
15256;SDS011;7731;50.720;6.912;2024-01-06T13:52:48;18.70;;;13.47;;
15256;SDS011;7731;50.720;6.912;2024-01-06T13:55:18;19.90;;;13.27;;
15256;SDS011;7731;50.720;6.912;2024-01-06T13:57:50;17.63;;;12.17;;
15256;SDS011;7731;50.720;6.912;2024-01-06T14:00:22;18.70;;;13.93;;
15256;SDS011;7731;50.720;6.912;2024-01-06T14:02:56;20.33;;;13.63;;
15256;SDS011;7731;50.720;6.912;2024-01-06T14:05:27;20.00;;;15.53;;
15256;SDS011;7731;50.720;6.912;2024-01-06T14:07:57;17.67;;;13.87;;
15256;SDS011;7731;50.720;6.912;2024-01-06T14:10:28;24.37;;;17.27;;
15256;SDS011;7731;50.720;6.912;2024-01-06T14:12:58;23.77;;;17.70;;
15256;SDS011;7731;50.720;6.912;2024-01-06T14:15:29;24.27;;;18.23;;
15256;SDS011;7731;50.720;6.912;2024-01-06T14:18:03;25.00;;;17.33;;
15256;SDS011;7731;50.720;6.912;2024-01-06T14:20:37;24.97;;;16.97;;
15256;SDS011;7731;50.720;6.912;2024-01-06T14:23:16;21.50;;;15.93;;
15256;SDS011;7731;50.720;6.912;2024-01-06T14:25:51;22.60;;;16.17;;
15256;SDS011;7731;50.720;6.912;2024-01-06T14:28:21;23.10;;;16.37;;
15256;SDS011;7731;50.720;6.912;2024-01-06T14:30:51;28.37;;;20.93;;
15256;SDS011;7731;50.720;6.912;2024-01-06T14:33:27;19.20;;;13.90;;
15256;SDS011;7731;50.720;6.912;2024-01-06T14:35:57;19.60;;;13.57;;
15256;SDS011;7731;50.720;6.912;2024-01-06T14:38:28;20.93;;;14.37;;
15256;SDS011;7731;50.720;6.912;2024-01-06T14:40:58;23.20;;;15.33;;
15256;SDS011;7731;50.720;6.912;2024-01-06T14:43:29;24.77;;;16.33;;
15256;SDS011;7731;50.720;6.912;2024-01-06T14:45:59;21.60;;;15.00;;
15256;SDS011;7731;50.720;6.912;2024-01-06T14:48:37;20.67;;;14.37;;
15256;SDS011;7731;50.720;6.912;2024-01-06T14:51:08;18.93;;;13.43;;
15256;SDS011;7731;50.720;6.912;2024-01-06T14:53:48;24.13;;;14.67;;
15256;SDS011;7731;50.720;6.912;2024-01-06T14:56:25;22.73;;;13.90;;
15256;SDS011;7731;50.720;6.912;2024-01-06T14:58:56;20.03;;;13.43;;
15256;SDS011;7731;50.720;6.912;2024-01-06T15:01:26;17.13;;;11.93;;
15256;SDS011;7731;50.720;6.912;2024-01-06T15:04:09;18.37;;;12.57;;
15256;SDS011;7731;50.720;6.912;2024-01-06T15:06:40;19.17;;;13.60;;
15256;SDS011;7731;50.720;6.912;2024-01-06T15:09:10;19.20;;;13.80;;
15256;SDS011;7731;50.720;6.912;2024-01-06T15:11:41;20.00;;;14.70;;
15256;SDS011;7731;50.720;6.912;2024-01-06T15:14:11;18.33;;;14.90;;
15256;SDS011;7731;50.720;6.912;2024-01-06T15:16:51;21.17;;;15.23;;
15256;SDS011;7731;50.720;6.912;2024-01-06T15:19:26;21.30;;;15.77;;
15256;SDS011;7731;50.720;6.912;2024-01-06T15:22:01;28.47;;;19.40;;
15256;SDS011;7731;50.720;6.912;2024-01-06T15:24:31;39.37;;;28.57;;
15256;SDS011;7731;50.720;6.912;2024-01-06T15:27:02;25.23;;;18.57;;